sensor_id;sensor_type;location;lat;lon;timestamp;P1;durP1;ratioP1;P2;durP2;ratioP2
35891;SDS011;21993;42.672;23.296;2022-11-15T00:00:02;52.23;;;26.53;;
35891;SDS011;21993;42.672;23.296;2022-11-15T00:02:28;50.60;;;26.23;;
35891;SDS011;21993;42.672;23.296;2022-11-15T00:04:54;48.70;;;24.53;;
35891;SDS011;21993;42.672;23.296;2022-11-15T00:07:19;50.40;;;24.60;;
35891;SDS011;21993;42.672;23.296;2022-11-15T00:09:44;49.43;;;26.20;;
35891;SDS011;21993;42.672;23.296;2022-11-15T00:12:10;50.80;;;25.43;;
35891;SDS011;21993;42.672;23.296;2022-11-15T00:14:35;52.63;;;25.57;;
35891;SDS011;21993;42.672;23.296;2022-11-15T00:17:00;49.70;;;27.73;;
35891;SDS011;21993;42.672;23.296;2022-11-15T00:19:26;53.13;;;27.40;;
35891;SDS011;21993;42.672;23.296;2022-11-15T00:21:51;46.00;;;26.53;;
35891;SDS011;21993;42.672;23.296;2022-11-15T00:24:17;49.60;;;26.33;;
35891;SDS011;21993;42.672;23.296;2022-11-15T00:26:42;46.40;;;26.50;;
35891;SDS011;21993;42.672;23.296;2022-11-15T00:29:08;50.17;;;24.97;;
35891;SDS011;21993;42.672;23.296;2022-11-15T00:31:33;49.10;;;26.53;;
35891;SDS011;21993;42.672;23.296;2022-11-15T00:33:58;46.70;;;25.20;;
35891;SDS011;21993;42.672;23.296;2022-11-15T00:36:24;45.90;;;23.20;;
35891;SDS011;21993;42.672;23.296;2022-11-15T00:38:49;43.43;;;24.30;;
35891;SDS011;21993;42.672;23.296;2022-11-15T00:41:15;46.37;;;23.97;;
35891;SDS011;21993;42.672;23.296;2022-11-15T00:43:40;44.90;;;23.13;;
35891;SDS011;21993;42.672;23.296;2022-11-15T00:46:08;42.27;;;22.73;;
35891;SDS011;21993;42.672;23.296;2022-11-15T00:48:34;45.77;;;24.13;;
35891;SDS011;21993;42.672;23.296;2022-11-15T00:51:00;45.03;;;23.03;;
35891;SDS011;21993;42.672;23.296;2022-11-15T00:53:25;47.20;;;23.27;;
35891;SDS011;21993;42.672;23.296;2022-11-15T00:55:51;46.50;;;23.87;;
35891;SDS011;21993;42.672;23.296;2022-11-15T00:58:16;49.67;;;23.83;;
35891;SDS011;21993;42.672;23.296;2022-11-15T01:00:42;40.40;;;22.10;;
35891;SDS011;21993;42.672;23.296;2022-11-15T01:03:07;43.53;;;22.17;;
35891;SDS011;21993;42.672;23.296;2022-11-15T01:05:33;47.53;;;24.30;;
35891;SDS011;21993;42.672;23.296;2022-11-15T01:07:58;41.20;;;23.53;;
35891;SDS011;21993;42.672;23.296;2022-11-15T01:10:23;42.40;;;23.40;;
35891;SDS011;21993;42.672;23.296;2022-11-15T01:12:50;40.70;;;22.20;;
35891;SDS011;21993;42.672;23.296;2022-11-15T01:15:16;45.27;;;23.50;;
35891;SDS011;21993;42.672;23.296;2022-11-15T01:17:41;44.67;;;22.23;;
35891;SDS011;21993;42.672;23.296;2022-11-15T01:20:07;44.23;;;22.63;;
35891;SDS011;21993;42.672;23.296;2022-11-15T01:22:33;41.40;;;21.13;;
35891;SDS011;21993;42.672;23.296;2022-11-15T01:24:58;47.70;;;24.37;;
35891;SDS011;21993;42.672;23.296;2022-11-15T01:27:24;38.53;;;22.03;;
35891;SDS011;21993;42.672;23.296;2022-11-15T01:29:49;51.03;;;23.23;;
35891;SDS011;21993;42.672;23.296;2022-11-15T01:32:15;41.00;;;23.10;;
35891;SDS011;21993;42.672;23.296;2022-11-15T01:34:41;39.07;;;21.70;;
35891;SDS011;21993;42.672;23.296;2022-11-15T01:37:06;42.47;;;23.40;;
35891;SDS011;21993;42.672;23.296;2022-11-15T01:39:32;44.87;;;23.90;;
35891;SDS011;21993;42.672;23.296;2022-11-15T01:41:57;51.93;;;22.70;;
35891;SDS011;21993;42.672;23.296;2022-11-15T01:44:31;47.27;;;23.40;;
35891;SDS011;21993;42.672;23.296;2022-11-15T01:46:57;38.80;;;21.53;;
35891;SDS011;21993;42.672;23.296;2022-11-15T01:49:25;39.47;;;20.73;;
35891;SDS011;21993;42.672;23.296;2022-11-15T01:51:54;46.80;;;23.13;;
35891;SDS011;21993;42.672;23.296;2022-11-15T01:54:20;40.23;;;21.03;;
35891;SDS011;21993;42.672;23.296;2022-11-15T01:56:57;42.00;;;19.87;;
35891;SDS011;21993;42.672;23.296;2022-11-15T01:59:27;40.67;;;19.53;;
35891;SDS011;21993;42.672;23.296;2022-11-15T02:01:53;42.03;;;20.73;;
35891;SDS011;21993;42.672;23.296;2022-11-15T02:04:26;39.47;;;20.73;;
35891;SDS011;21993;42.672;23.296;2022-11-15T02:06:53;36.73;;;18.43;;
35891;SDS011;21993;42.672;23.296;2022-11-15T02:09:19;37.83;;;17.97;;
35891;SDS011;21993;42.672;23.296;2022-11-15T02:11:45;39.23;;;20.80;;
35891;SDS011;21993;42.672;23.296;2022-11-15T02:14:12;44.30;;;21.13;;
35891;SDS011;21993;42.672;23.296;2022-11-15T02:16:59;40.83;;;19.60;;
35891;SDS011;21993;42.672;23.296;2022-11-15T02:31:20;33.23;;;18.63;;
35891;SDS011;21993;42.672;23.296;2022-11-15T02:36:34;36.67;;;19.50;;
35891;SDS011;21993;42.672;23.296;2022-11-15T02:42:43;37.10;;;20.03;;
35891;SDS011;21993;42.672;23.296;2022-11-15T02:45:26;35.00;;;19.37;;
35891;SDS011;21993;42.672;23.296;2022-11-15T02:47:55;40.63;;;21.77;;
35891;SDS011;21993;42.672;23.296;2022-11-15T02:50:25;39.00;;;21.43;;
35891;SDS011;21993;42.672;23.296;2022-11-15T02:52:53;41.43;;;20.80;;
35891;SDS011;21993;42.672;23.296;2022-11-15T02:55:31;51.77;;;22.33;;
35891;SDS011;21993;42.672;23.296;2022-11-15T03:08:54;41.10;;;20.97;;
35891;SDS011;21993;42.672;23.296;2022-11-15T03:11:28;49.67;;;24.63;;
35891;SDS011;21993;42.672;23.296;2022-11-15T03:16:41;55.90;;;28.00;;
35891;SDS011;21993;42.672;23.296;2022-11-15T03:19:27;55.20;;;25.00;;
35891;SDS011;21993;42.672;23.296;2022-11-15T03:21:59;60.47;;;31.43;;
35891;SDS011;21993;42.672;23.296;2022-11-15T03:24:28;49.13;;;24.80;;
35891;SDS011;21993;42.672;23.296;2022-11-15T03:26:58;50.20;;;24.10;;
35891;SDS011;21993;42.672;23.296;2022-11-15T03:29:31;64.77;;;29.40;;
35891;SDS011;21993;42.672;23.296;2022-11-15T03:32:15;51.87;;;26.47;;
35891;SDS011;21993;42.672;23.296;2022-11-15T03:37:18;54.40;;;26.67;;
35891;SDS011;21993;42.672;23.296;2022-11-15T03:39:47;53.40;;;29.13;;
35891;SDS011;21993;42.672;23.296;2022-11-15T03:42:23;54.73;;;26.30;;
35891;SDS011;21993;42.672;23.296;2022-11-15T03:44:59;53.60;;;27.10;;
35891;SDS011;21993;42.672;23.296;2022-11-15T03:47:36;58.63;;;27.67;;
35891;SDS011;21993;42.672;23.296;2022-11-15T03:50:08;57.27;;;29.10;;
35891;SDS011;21993;42.672;23.296;2022-11-15T03:52:38;55.13;;;26.17;;
35891;SDS011;21993;42.672;23.296;2022-11-15T03:55:07;64.93;;;29.53;;
35891;SDS011;21993;42.672;23.296;2022-11-15T03:57:35;60.73;;;28.93;;
35891;SDS011;21993;42.672;23.296;2022-11-15T04:00:00;63.97;;;30.07;;
35891;SDS011;21993;42.672;23.296;2022-11-15T04:02:26;64.87;;;28.83;;
35891;SDS011;21993;42.672;23.296;2022-11-15T04:04:51;70.07;;;30.67;;
35891;SDS011;21993;42.672;23.296;2022-11-15T04:07:16;69.23;;;29.63;;
35891;SDS011;21993;42.672;23.296;2022-11-15T04:09:42;75.37;;;30.07;;
35891;SDS011;21993;42.672;23.296;2022-11-15T04:12:25;70.10;;;30.20;;
35891;SDS011;21993;42.672;23.296;2022-11-15T04:14:58;74.63;;;31.87;;
35891;SDS011;21993;42.672;23.296;2022-11-15T04:17:43;63.60;;;29.93;;
35891;SDS011;21993;42.672;23.296;2022-11-15T04:23:19;66.87;;;30.23;;
35891;SDS011;21993;42.672;23.296;2022-11-15T04:26:09;79.33;;;30.00;;
35891;SDS011;21993;42.672;23.296;2022-11-15T04:28:37;74.07;;;30.17;;
35891;SDS011;21993;42.672;23.296;2022-11-15T04:31:23;73.33;;;30.50;;
35891;SDS011;21993;42.672;23.296;2022-11-15T04:33:49;65.70;;;29.87;;
35891;SDS011;21993;42.672;23.296;2022-11-15T04:36:14;69.17;;;30.90;;
35891;SDS011;21993;42.672;23.296;2022-11-15T04:38:58;65.07;;;29.90;;
35891;SDS011;21993;42.672;23.296;2022-11-15T04:41:24;71.73;;;32.50;;
35891;SDS011;21993;42.672;23.296;2022-11-15T04:43:49;76.83;;;31.00;;
35891;SDS011;21993;42.672;23.296;2022-11-15T04:46:14;67.97;;;30.63;;
35891;SDS011;21993;42.672;23.296;2022-11-15T04:48:40;78.10;;;30.20;;
35891;SDS011;21993;42.672;23.296;2022-11-15T04:51:05;84.70;;;34.57;;
35891;SDS011;21993;42.672;23.296;2022-11-15T04:53:31;83.13;;;32.47;;
35891;SDS011;21993;42.672;23.296;2022-11-15T04:55:56;77.83;;;31.20;;
35891;SDS011;21993;42.672;23.296;2022-11-15T04:58:21;71.83;;;32.27;;
35891;SDS011;21993;42.672;23.296;2022-11-15T05:00:47;85.17;;;31.07;;
35891;SDS011;21993;42.672;23.296;2022-11-15T05:03:12;83.40;;;35.23;;
35891;SDS011;21993;42.672;23.296;2022-11-15T05:05:56;77.30;;;32.33;;
35891;SDS011;21993;42.672;23.296;2022-11-15T05:08:22;72.07;;;31.67;;
35891;SDS011;21993;42.672;23.296;2022-11-15T05:10:48;76.67;;;31.23;;
35891;SDS011;21993;42.672;23.296;2022-11-15T05:13:13;62.13;;;26.87;;
35891;SDS011;21993;42.672;23.296;2022-11-15T05:15:38;65.30;;;27.70;;
35891;SDS011;21993;42.672;23.296;2022-11-15T05:18:04;57.23;;;28.17;;
35891;SDS011;21993;42.672;23.296;2022-11-15T05:20:29;60.30;;;25.50;;
35891;SDS011;21993;42.672;23.296;2022-11-15T05:22:55;58.57;;;28.13;;
35891;SDS011;21993;42.672;23.296;2022-11-15T05:25:21;58.13;;;25.33;;
35891;SDS011;21993;42.672;23.296;2022-11-15T05:27:47;56.70;;;26.13;;
35891;SDS011;21993;42.672;23.296;2022-11-15T05:30:12;58.43;;;25.03;;
35891;SDS011;21993;42.672;23.296;2022-11-15T05:32:38;53.17;;;24.37;;
35891;SDS011;21993;42.672;23.296;2022-11-15T05:35:04;66.53;;;26.30;;
35891;SDS011;21993;42.672;23.296;2022-11-15T05:37:34;53.53;;;23.07;;
35891;SDS011;21993;42.672;23.296;2022-11-15T05:40:00;57.30;;;25.33;;
35891;SDS011;21993;42.672;23.296;2022-11-15T05:42:25;57.13;;;24.80;;
35891;SDS011;21993;42.672;23.296;2022-11-15T05:44:52;67.20;;;26.20;;
35891;SDS011;21993;42.672;23.296;2022-11-15T05:47:19;70.90;;;27.23;;
35891;SDS011;21993;42.672;23.296;2022-11-15T05:49:48;72.27;;;28.00;;
35891;SDS011;21993;42.672;23.296;2022-11-15T05:52:18;80.40;;;31.47;;
35891;SDS011;21993;42.672;23.296;2022-11-15T05:54:46;67.77;;;28.60;;
35891;SDS011;21993;42.672;23.296;2022-11-15T05:57:12;62.00;;;27.43;;
35891;SDS011;21993;42.672;23.296;2022-11-15T05:59:38;76.40;;;29.30;;
35891;SDS011;21993;42.672;23.296;2022-11-15T06:02:05;61.30;;;28.97;;
35891;SDS011;21993;42.672;23.296;2022-11-15T06:04:30;67.17;;;31.50;;
35891;SDS011;21993;42.672;23.296;2022-11-15T06:06:57;75.33;;;30.17;;
35891;SDS011;21993;42.672;23.296;2022-11-15T06:09:23;76.00;;;33.50;;
35891;SDS011;21993;42.672;23.296;2022-11-15T06:11:48;89.77;;;35.47;;
35891;SDS011;21993;42.672;23.296;2022-11-15T06:14:14;65.17;;;28.07;;
35891;SDS011;21993;42.672;23.296;2022-11-15T06:16:39;74.40;;;29.97;;
35891;SDS011;21993;42.672;23.296;2022-11-15T06:19:05;81.13;;;32.67;;
35891;SDS011;21993;42.672;23.296;2022-11-15T06:21:32;89.70;;;34.80;;
35891;SDS011;21993;42.672;23.296;2022-11-15T06:23:57;74.87;;;33.57;;
35891;SDS011;21993;42.672;23.296;2022-11-15T06:26:22;83.10;;;35.57;;
35891;SDS011;21993;42.672;23.296;2022-11-15T06:28:48;81.43;;;34.33;;
35891;SDS011;21993;42.672;23.296;2022-11-15T06:31:13;66.63;;;29.17;;
35891;SDS011;21993;42.672;23.296;2022-11-15T06:33:39;79.80;;;30.97;;
35891;SDS011;21993;42.672;23.296;2022-11-15T06:36:06;75.63;;;31.40;;
35891;SDS011;21993;42.672;23.296;2022-11-15T06:38:33;74.77;;;32.33;;
35891;SDS011;21993;42.672;23.296;2022-11-15T06:41:02;76.70;;;31.00;;
35891;SDS011;21993;42.672;23.296;2022-11-15T06:43:29;85.87;;;34.10;;
35891;SDS011;21993;42.672;23.296;2022-11-15T06:45:54;77.97;;;33.37;;
35891;SDS011;21993;42.672;23.296;2022-11-15T06:48:19;86.33;;;32.27;;
35891;SDS011;21993;42.672;23.296;2022-11-15T06:50:55;74.63;;;32.07;;
35891;SDS011;21993;42.672;23.296;2022-11-15T06:53:22;90.93;;;34.40;;
35891;SDS011;21993;42.672;23.296;2022-11-15T06:55:47;83.93;;;31.00;;
35891;SDS011;21993;42.672;23.296;2022-11-15T06:58:13;86.97;;;36.17;;
35891;SDS011;21993;42.672;23.296;2022-11-15T07:00:39;103.53;;;37.93;;
35891;SDS011;21993;42.672;23.296;2022-11-15T07:03:05;94.17;;;35.83;;
35891;SDS011;21993;42.672;23.296;2022-11-15T07:05:30;86.83;;;35.30;;
35891;SDS011;21993;42.672;23.296;2022-11-15T07:07:56;87.83;;;34.83;;
35891;SDS011;21993;42.672;23.296;2022-11-15T07:10:23;85.90;;;34.23;;
35891;SDS011;21993;42.672;23.296;2022-11-15T07:12:53;74.07;;;33.97;;
35891;SDS011;21993;42.672;23.296;2022-11-15T07:15:22;84.30;;;34.70;;
35891;SDS011;21993;42.672;23.296;2022-11-15T07:17:49;82.73;;;33.43;;
35891;SDS011;21993;42.672;23.296;2022-11-15T07:20:15;96.60;;;36.23;;
35891;SDS011;21993;42.672;23.296;2022-11-15T07:22:42;72.53;;;31.70;;
35891;SDS011;21993;42.672;23.296;2022-11-15T07:25:08;84.07;;;33.10;;
35891;SDS011;21993;42.672;23.296;2022-11-15T07:27:34;83.80;;;34.50;;
35891;SDS011;21993;42.672;23.296;2022-11-15T07:30:00;88.73;;;34.87;;
35891;SDS011;21993;42.672;23.296;2022-11-15T07:32:27;81.50;;;33.83;;
35891;SDS011;21993;42.672;23.296;2022-11-15T07:34:52;90.97;;;37.10;;
35891;SDS011;21993;42.672;23.296;2022-11-15T07:37:17;81.33;;;33.77;;
35891;SDS011;21993;42.672;23.296;2022-11-15T07:39:43;87.33;;;33.33;;
35891;SDS011;21993;42.672;23.296;2022-11-15T07:42:09;79.40;;;35.40;;
35891;SDS011;21993;42.672;23.296;2022-11-15T07:44:53;90.90;;;33.57;;
35891;SDS011;21993;42.672;23.296;2022-11-15T07:47:18;87.47;;;34.23;;
35891;SDS011;21993;42.672;23.296;2022-11-15T07:49:44;82.27;;;33.97;;
35891;SDS011;21993;42.672;23.296;2022-11-15T07:52:11;93.23;;;35.93;;
35891;SDS011;21993;42.672;23.296;2022-11-15T07:54:36;91.93;;;36.00;;
35891;SDS011;21993;42.672;23.296;2022-11-15T07:57:02;81.63;;;36.00;;
35891;SDS011;21993;42.672;23.296;2022-11-15T07:59:27;83.87;;;36.13;;
35891;SDS011;21993;42.672;23.296;2022-11-15T08:01:52;90.97;;;38.20;;
35891;SDS011;21993;42.672;23.296;2022-11-15T08:04:18;82.33;;;34.80;;
35891;SDS011;21993;42.672;23.296;2022-11-15T08:06:43;82.93;;;35.47;;
35891;SDS011;21993;42.672;23.296;2022-11-15T08:09:09;92.67;;;37.23;;
35891;SDS011;21993;42.672;23.296;2022-11-15T08:11:34;115.20;;;42.70;;
35891;SDS011;21993;42.672;23.296;2022-11-15T08:14:00;91.07;;;36.97;;
35891;SDS011;21993;42.672;23.296;2022-11-15T08:16:25;95.90;;;38.87;;
35891;SDS011;21993;42.672;23.296;2022-11-15T08:18:50;79.27;;;33.77;;
35891;SDS011;21993;42.672;23.296;2022-11-15T08:21:18;78.97;;;32.30;;
35891;SDS011;21993;42.672;23.296;2022-11-15T08:23:45;77.10;;;33.87;;
35891;SDS011;21993;42.672;23.296;2022-11-15T08:26:10;88.27;;;34.67;;
35891;SDS011;21993;42.672;23.296;2022-11-15T08:28:36;92.63;;;36.73;;
35891;SDS011;21993;42.672;23.296;2022-11-15T08:31:02;87.93;;;35.20;;
35891;SDS011;21993;42.672;23.296;2022-11-15T08:33:27;84.70;;;37.67;;
35891;SDS011;21993;42.672;23.296;2022-11-15T08:35:55;107.83;;;42.60;;
35891;SDS011;21993;42.672;23.296;2022-11-15T08:38:25;82.17;;;36.73;;
35891;SDS011;21993;42.672;23.296;2022-11-15T08:40:51;84.07;;;35.07;;
35891;SDS011;21993;42.672;23.296;2022-11-15T08:43:18;74.73;;;34.90;;
35891;SDS011;21993;42.672;23.296;2022-11-15T08:45:44;87.30;;;35.80;;
35891;SDS011;21993;42.672;23.296;2022-11-15T08:48:10;97.43;;;38.90;;
35891;SDS011;21993;42.672;23.296;2022-11-15T08:50:35;90.37;;;37.73;;
35891;SDS011;21993;42.672;23.296;2022-11-15T08:53:04;83.70;;;37.77;;
35891;SDS011;21993;42.672;23.296;2022-11-15T08:55:31;99.67;;;39.93;;
35891;SDS011;21993;42.672;23.296;2022-11-15T08:57:57;104.50;;;39.03;;
35891;SDS011;21993;42.672;23.296;2022-11-15T09:00:23;88.07;;;38.00;;
35891;SDS011;21993;42.672;23.296;2022-11-15T09:02:48;88.50;;;40.23;;
35891;SDS011;21993;42.672;23.296;2022-11-15T09:05:13;96.30;;;39.97;;
35891;SDS011;21993;42.672;23.296;2022-11-15T09:07:40;82.07;;;36.83;;
35891;SDS011;21993;42.672;23.296;2022-11-15T09:10:06;93.37;;;38.93;;
35891;SDS011;21993;42.672;23.296;2022-11-15T09:12:31;85.73;;;37.67;;
35891;SDS011;21993;42.672;23.296;2022-11-15T09:14:57;89.47;;;39.37;;
35891;SDS011;21993;42.672;23.296;2022-11-15T09:17:23;92.23;;;42.23;;
35891;SDS011;21993;42.672;23.296;2022-11-15T09:19:48;90.87;;;39.03;;
35891;SDS011;21993;42.672;23.296;2022-11-15T09:22:13;95.40;;;38.93;;
35891;SDS011;21993;42.672;23.296;2022-11-15T09:24:39;91.90;;;40.87;;
35891;SDS011;21993;42.672;23.296;2022-11-15T09:27:04;93.43;;;40.57;;
35891;SDS011;21993;42.672;23.296;2022-11-15T09:29:30;92.37;;;38.13;;
35891;SDS011;21993;42.672;23.296;2022-11-15T09:31:55;101.00;;;39.97;;
35891;SDS011;21993;42.672;23.296;2022-11-15T09:34:20;89.97;;;42.43;;
35891;SDS011;21993;42.672;23.296;2022-11-15T09:36:46;100.90;;;42.33;;
35891;SDS011;21993;42.672;23.296;2022-11-15T09:39:11;111.33;;;48.27;;
35891;SDS011;21993;42.672;23.296;2022-11-15T09:49:27;82.87;;;36.27;;
35891;SDS011;21993;42.672;23.296;2022-11-15T09:51:55;73.70;;;33.60;;
35891;SDS011;21993;42.672;23.296;2022-11-15T09:57:04;87.43;;;36.87;;
35891;SDS011;21993;42.672;23.296;2022-11-15T10:04:48;99.63;;;40.60;;
35891;SDS011;21993;42.672;23.296;2022-11-15T10:07:28;103.23;;;40.73;;
35891;SDS011;21993;42.672;23.296;2022-11-15T10:10:04;99.33;;;41.37;;
35891;SDS011;21993;42.672;23.296;2022-11-15T10:12:39;90.67;;;40.07;;
35891;SDS011;21993;42.672;23.296;2022-11-15T10:15:12;104.73;;;42.13;;
35891;SDS011;21993;42.672;23.296;2022-11-15T10:20:48;118.10;;;44.87;;
35891;SDS011;21993;42.672;23.296;2022-11-15T10:23:19;93.07;;;40.97;;
35891;SDS011;21993;42.672;23.296;2022-11-15T10:25:47;99.17;;;40.57;;
35891;SDS011;21993;42.672;23.296;2022-11-15T10:28:17;96.47;;;41.27;;
35891;SDS011;21993;42.672;23.296;2022-11-15T10:30:48;108.43;;;43.13;;
35891;SDS011;21993;42.672;23.296;2022-11-15T10:46:36;95.60;;;40.70;;
35891;SDS011;21993;42.672;23.296;2022-11-15T10:51:47;81.07;;;37.37;;
35891;SDS011;21993;42.672;23.296;2022-11-15T10:57:06;83.27;;;35.60;;
35891;SDS011;21993;42.672;23.296;2022-11-15T10:59:48;76.70;;;38.13;;
35891;SDS011;21993;42.672;23.296;2022-11-15T11:05:06;81.87;;;35.00;;
35891;SDS011;21993;42.672;23.296;2022-11-15T11:07:54;80.77;;;37.03;;
35891;SDS011;21993;42.672;23.296;2022-11-15T11:10:53;77.20;;;34.33;;
35891;SDS011;21993;42.672;23.296;2022-11-15T11:13:23;83.53;;;37.90;;
35891;SDS011;21993;42.672;23.296;2022-11-15T11:30:17;73.30;;;35.33;;
35891;SDS011;21993;42.672;23.296;2022-11-15T11:32:55;69.97;;;35.53;;
35891;SDS011;21993;42.672;23.296;2022-11-15T11:35:34;71.47;;;36.17;;
35891;SDS011;21993;42.672;23.296;2022-11-15T11:41:20;71.67;;;35.33;;
35891;SDS011;21993;42.672;23.296;2022-11-15T11:46:31;84.70;;;39.67;;
35891;SDS011;21993;42.672;23.296;2022-11-15T11:49:02;80.50;;;39.10;;
35891;SDS011;21993;42.672;23.296;2022-11-15T11:51:39;84.83;;;40.67;;
35891;SDS011;21993;42.672;23.296;2022-11-15T11:54:10;76.57;;;39.50;;
35891;SDS011;21993;42.672;23.296;2022-11-15T11:56:41;78.07;;;38.53;;
35891;SDS011;21993;42.672;23.296;2022-11-15T11:59:21;81.17;;;40.77;;
35891;SDS011;21993;42.672;23.296;2022-11-15T12:01:57;85.90;;;38.87;;
35891;SDS011;21993;42.672;23.296;2022-11-15T12:04:35;81.50;;;39.83;;
35891;SDS011;21993;42.672;23.296;2022-11-15T12:09:51;81.27;;;40.77;;
35891;SDS011;21993;42.672;23.296;2022-11-15T12:18:26;78.83;;;38.47;;
35891;SDS011;21993;42.672;23.296;2022-11-15T12:20:53;79.20;;;36.80;;
35891;SDS011;21993;42.672;23.296;2022-11-15T12:23:32;82.73;;;38.50;;
35891;SDS011;21993;42.672;23.296;2022-11-15T12:26:14;68.47;;;35.30;;
35891;SDS011;21993;42.672;23.296;2022-11-15T12:28:49;73.20;;;35.50;;
35891;SDS011;21993;42.672;23.296;2022-11-15T12:36:45;75.83;;;34.33;;
35891;SDS011;21993;42.672;23.296;2022-11-15T12:39:11;68.83;;;33.97;;
35891;SDS011;21993;42.672;23.296;2022-11-15T12:41:39;73.30;;;36.50;;
35891;SDS011;21993;42.672;23.296;2022-11-15T12:44:10;68.53;;;35.53;;
35891;SDS011;21993;42.672;23.296;2022-11-15T12:49:48;63.47;;;34.27;;
35891;SDS011;21993;42.672;23.296;2022-11-15T13:02:38;64.10;;;31.60;;
35891;SDS011;21993;42.672;23.296;2022-11-15T13:17:48;63.67;;;35.40;;
35891;SDS011;21993;42.672;23.296;2022-11-15T13:27:52;69.70;;;34.47;;
35891;SDS011;21993;42.672;23.296;2022-11-15T13:30:23;71.03;;;33.90;;
35891;SDS011;21993;42.672;23.296;2022-11-15T13:32:50;63.07;;;33.23;;
35891;SDS011;21993;42.672;23.296;2022-11-15T13:35:21;63.70;;;32.60;;
35891;SDS011;21993;42.672;23.296;2022-11-15T13:37:48;67.43;;;34.53;;
35891;SDS011;21993;42.672;23.296;2022-11-15T13:42:55;71.00;;;34.30;;
35891;SDS011;21993;42.672;23.296;2022-11-15T13:48:45;77.80;;;32.70;;
35891;SDS011;21993;42.672;23.296;2022-11-15T13:51:19;71.97;;;35.67;;
35891;SDS011;21993;42.672;23.296;2022-11-15T13:53:54;67.43;;;32.63;;
35891;SDS011;21993;42.672;23.296;2022-11-15T13:56:41;63.17;;;31.97;;
35891;SDS011;21993;42.672;23.296;2022-11-15T13:59:17;72.40;;;34.80;;
35891;SDS011;21993;42.672;23.296;2022-11-15T14:01:44;69.83;;;34.10;;
35891;SDS011;21993;42.672;23.296;2022-11-15T14:07:32;65.57;;;33.43;;
35891;SDS011;21993;42.672;23.296;2022-11-15T14:10:17;64.63;;;34.03;;
35891;SDS011;21993;42.672;23.296;2022-11-15T14:12:57;73.77;;;33.77;;
35891;SDS011;21993;42.672;23.296;2022-11-15T14:15:30;73.73;;;35.33;;
35891;SDS011;21993;42.672;23.296;2022-11-15T14:17:58;69.80;;;35.10;;
35891;SDS011;21993;42.672;23.296;2022-11-15T14:20:36;69.27;;;34.17;;
35891;SDS011;21993;42.672;23.296;2022-11-15T14:25:53;71.07;;;37.37;;
35891;SDS011;21993;42.672;23.296;2022-11-15T14:30:45;76.03;;;37.57;;
35891;SDS011;21993;42.672;23.296;2022-11-15T14:35:49;74.17;;;35.63;;
35891;SDS011;21993;42.672;23.296;2022-11-15T14:38:15;83.70;;;38.13;;
35891;SDS011;21993;42.672;23.296;2022-11-15T14:40:41;81.50;;;39.83;;
35891;SDS011;21993;42.672;23.296;2022-11-15T14:43:08;77.33;;;37.30;;
35891;SDS011;21993;42.672;23.296;2022-11-15T14:45:36;76.80;;;37.83;;
35891;SDS011;21993;42.672;23.296;2022-11-15T14:48:01;75.23;;;36.93;;
35891;SDS011;21993;42.672;23.296;2022-11-15T14:50:27;84.10;;;40.43;;
35891;SDS011;21993;42.672;23.296;2022-11-15T14:52:53;80.63;;;38.17;;
35891;SDS011;21993;42.672;23.296;2022-11-15T14:55:28;71.97;;;36.13;;
35891;SDS011;21993;42.672;23.296;2022-11-15T14:57:57;81.33;;;39.57;;
35891;SDS011;21993;42.672;23.296;2022-11-15T15:00:28;81.13;;;38.23;;
35891;SDS011;21993;42.672;23.296;2022-11-15T15:02:54;76.87;;;36.97;;
35891;SDS011;21993;42.672;23.296;2022-11-15T15:05:23;78.10;;;36.83;;
35891;SDS011;21993;42.672;23.296;2022-11-15T15:08:05;76.00;;;35.63;;
35891;SDS011;21993;42.672;23.296;2022-11-15T15:10:31;70.67;;;36.97;;
35891;SDS011;21993;42.672;23.296;2022-11-15T15:12:59;81.53;;;36.97;;
35891;SDS011;21993;42.672;23.296;2022-11-15T15:15:26;75.33;;;36.43;;
35891;SDS011;21993;42.672;23.296;2022-11-15T15:17:58;82.10;;;38.27;;
35891;SDS011;21993;42.672;23.296;2022-11-15T15:20:23;77.87;;;39.50;;
35891;SDS011;21993;42.672;23.296;2022-11-15T15:22:49;88.90;;;46.17;;
35891;SDS011;21993;42.672;23.296;2022-11-15T15:25:18;88.27;;;45.43;;
35891;SDS011;21993;42.672;23.296;2022-11-15T15:27:55;85.60;;;42.77;;
35891;SDS011;21993;42.672;23.296;2022-11-15T15:30:24;78.80;;;40.13;;
35891;SDS011;21993;42.672;23.296;2022-11-15T15:32:50;83.63;;;41.80;;
35891;SDS011;21993;42.672;23.296;2022-11-15T15:35:17;92.90;;;41.33;;
35891;SDS011;21993;42.672;23.296;2022-11-15T15:37:43;76.03;;;38.50;;
35891;SDS011;21993;42.672;23.296;2022-11-15T15:40:20;84.70;;;40.27;;
35891;SDS011;21993;42.672;23.296;2022-11-15T15:42:47;91.20;;;43.23;;
35891;SDS011;21993;42.672;23.296;2022-11-15T15:45:13;87.67;;;42.37;;
35891;SDS011;21993;42.672;23.296;2022-11-15T15:47:40;81.10;;;38.77;;
35891;SDS011;21993;42.672;23.296;2022-11-15T15:50:21;87.63;;;41.80;;
35891;SDS011;21993;42.672;23.296;2022-11-15T15:52:52;90.10;;;40.70;;
35891;SDS011;21993;42.672;23.296;2022-11-15T15:55:19;93.97;;;43.90;;
35891;SDS011;21993;42.672;23.296;2022-11-15T15:57:44;99.27;;;42.63;;
35891;SDS011;21993;42.672;23.296;2022-11-15T16:00:11;104.47;;;46.30;;
35891;SDS011;21993;42.672;23.296;2022-11-15T16:02:37;86.77;;;42.77;;
35891;SDS011;21993;42.672;23.296;2022-11-15T16:05:02;88.57;;;42.30;;
35891;SDS011;21993;42.672;23.296;2022-11-15T16:07:28;87.00;;;43.80;;
35891;SDS011;21993;42.672;23.296;2022-11-15T16:09:54;88.00;;;43.10;;
35891;SDS011;21993;42.672;23.296;2022-11-15T16:12:29;85.37;;;38.93;;
35891;SDS011;21993;42.672;23.296;2022-11-15T16:14:59;85.37;;;37.93;;
35891;SDS011;21993;42.672;23.296;2022-11-15T16:17:30;76.53;;;37.90;;
35891;SDS011;21993;42.672;23.296;2022-11-15T16:19:58;74.67;;;36.90;;
35891;SDS011;21993;42.672;23.296;2022-11-15T16:22:24;80.50;;;36.77;;
35891;SDS011;21993;42.672;23.296;2022-11-15T16:24:49;84.83;;;38.17;;
35891;SDS011;21993;42.672;23.296;2022-11-15T16:27:16;78.97;;;38.30;;
35891;SDS011;21993;42.672;23.296;2022-11-15T16:29:43;79.07;;;34.57;;
35891;SDS011;21993;42.672;23.296;2022-11-15T16:32:09;83.93;;;37.60;;
35891;SDS011;21993;42.672;23.296;2022-11-15T16:34:34;76.57;;;37.77;;
35891;SDS011;21993;42.672;23.296;2022-11-15T16:37:00;72.87;;;38.33;;
35891;SDS011;21993;42.672;23.296;2022-11-15T16:39:25;79.73;;;38.63;;
35891;SDS011;21993;42.672;23.296;2022-11-15T16:41:52;84.23;;;37.60;;
35891;SDS011;21993;42.672;23.296;2022-11-15T16:44:18;82.40;;;37.60;;
35891;SDS011;21993;42.672;23.296;2022-11-15T16:46:43;83.83;;;39.20;;
35891;SDS011;21993;42.672;23.296;2022-11-15T16:49:15;78.10;;;37.37;;
35891;SDS011;21993;42.672;23.296;2022-11-15T16:51:41;74.27;;;37.50;;
35891;SDS011;21993;42.672;23.296;2022-11-15T16:54:10;81.93;;;36.37;;
35891;SDS011;21993;42.672;23.296;2022-11-15T16:56:36;84.53;;;41.63;;
35891;SDS011;21993;42.672;23.296;2022-11-15T16:59:03;82.07;;;36.43;;